<?xml version="1.0" encoding="UTF-8" standalone="no" ?>
<gpx xmlns="http://www.topografix.com/GPX/1/1" xmlns:xsi="http://www.w3.org/2001/XMLSchema-instance" xsi:schemaLocation="http://www.topografix.com/GPX/1/1 http://www.topografix.com/GPX/1/1/gpx.xsd" version="1.1" creator="VisuGPX - https://www.visugpx.com">
  <metadata>
    <name>Maroc 2019 - Moto Fred</name>
  </metadata>
  <trk>
    <name><![CDATA[Maroc 2019 - Moto Fred]]></name>
    <trkseg>
      <trkpt lat="35.0721" lon="-2.94059">
        <ele>79.314</ele>
        <time>2019-04-10T06:40:00Z</time>
      </trkpt>
      <trkpt lat="35.04559" lon="-2.96087">
        <ele>115.054</ele>
        <time>2019-04-10T06:47:30Z</time>
      </trkpt>
      <trkpt lat="34.95249" lon="-2.89006">
        <ele>225.909</ele>
        <time>2019-04-10T07:12:25Z</time>
      </trkpt>
      <trkpt lat="34.89495" lon="-2.86705">
        <ele>203.608</ele>
        <time>2019-04-10T07:26:05Z</time>
      </trkpt>
      <trkpt lat="34.86348" lon="-2.87987">
        <ele>274.786</ele>
        <time>2019-04-10T07:33:59Z</time>
      </trkpt>
      <trkpt lat="34.81008" lon="-2.87835">
        <ele>319.446</ele>
        <time>2019-04-10T07:46:29Z</time>
      </trkpt>
      <trkpt lat="34.67065" lon="-2.74528">
        <ele>341.757</ele>
        <time>2019-04-10T08:30:10Z</time>
      </trkpt>
      <trkpt lat="34.57421" lon="-2.72977">
        <ele>389.234</ele>
        <time>2019-04-10T08:52:24Z</time>
      </trkpt>
      <trkpt lat="34.56156" lon="-2.74573">
        <ele>389.681</ele>
        <time>2019-04-10T08:56:37Z</time>
      </trkpt>
      <trkpt lat="34.54216" lon="-2.72226">
        <ele>432.02</ele>
        <time>2019-04-10T09:02:57Z</time>
      </trkpt>
      <trkpt lat="34.5269" lon="-2.72169">
        <ele>463.098</ele>
        <time>2019-04-10T09:06:25Z</time>
      </trkpt>
      <trkpt lat="34.49232" lon="-2.68146">
        <ele>626.424</ele>
        <time>2019-04-10T09:17:30Z</time>
      </trkpt>
      <trkpt lat="34.48268" lon="-2.69539">
        <ele>580.581</ele>
        <time>2019-04-10T09:21:09Z</time>
      </trkpt>
      <trkpt lat="34.3688" lon="-2.64153">
        <ele>906.661</ele>
        <time>2019-04-10T09:48:49Z</time>
      </trkpt>
      <trkpt lat="34.33445" lon="-2.5993">
        <ele>1150.717</ele>
        <time>2019-04-10T10:00:04Z</time>
      </trkpt>
      <trkpt lat="34.31074" lon="-2.61157">
        <ele>1347.108</ele>
        <time>2019-04-10T10:06:08Z</time>
      </trkpt>
      <trkpt lat="34.29336" lon="-2.60681">
        <ele>1249.723</ele>
        <time>2019-04-10T10:10:09Z</time>
      </trkpt>
      <trkpt lat="34.28652" lon="-2.58698">
        <ele>1245.213</ele>
        <time>2019-04-10T10:14:33Z</time>
      </trkpt>
      <trkpt lat="34.29421" lon="-2.57128">
        <ele>1320.124</ele>
        <time>2019-04-10T10:18:26Z</time>
      </trkpt>
      <trkpt lat="34.25142" lon="-2.56348">
        <ele>933.421</ele>
        <time>2019-04-10T10:30:08Z</time>
      </trkpt>
      <trkpt lat="34.22421" lon="-2.58736">
        <ele>764.478</ele>
        <time>2019-04-10T10:39:06Z</time>
      </trkpt>
      <trkpt lat="34.23163" lon="-2.60167">
        <ele>865.927</ele>
        <time>2019-04-10T10:42:23Z</time>
      </trkpt>
      <trkpt lat="34.21863" lon="-2.62113">
        <ele>759.215</ele>
        <time>2019-04-10T10:47:09Z</time>
      </trkpt>
      <trkpt lat="34.22823" lon="-2.6286">
        <ele>879.811</ele>
        <time>2019-04-10T10:49:42Z</time>
      </trkpt>
      <trkpt lat="34.2027" lon="-2.65353">
        <ele>679.064</ele>
        <time>2019-04-10T10:59:23Z</time>
      </trkpt>
      <trkpt lat="34.19728" lon="-2.6438">
        <ele>685.806</ele>
        <time>2019-04-10T11:01:46Z</time>
      </trkpt>
      <trkpt lat="34.16323" lon="-2.78385">
        <ele>802.016</ele>
        <time>2019-04-10T11:29:45Z</time>
      </trkpt>
      <trkpt lat="34.1662" lon="-2.8529">
        <ele>714.408</ele>
        <time>2019-04-10T11:42:51Z</time>
      </trkpt>
      <trkpt lat="34.19036" lon="-2.90454">
        <ele>657.321</ele>
        <time>2019-04-10T11:53:52Z</time>
      </trkpt>
      <trkpt lat="34.21053" lon="-2.91885">
        <ele>638.321</ele>
        <time>2019-04-10T11:59:05Z</time>
      </trkpt>
      <trkpt lat="34.07045" lon="-2.97602">
        <ele>743.012</ele>
        <time>2019-04-10T12:32:08Z</time>
      </trkpt>
      <trkpt lat="33.98443" lon="-3.04089">
        <ele>993.239</ele>
        <time>2019-04-10T12:55:04Z</time>
      </trkpt>
      <trkpt lat="33.9837" lon="-3.01455">
        <ele>1315.846</ele>
        <time>2019-04-10T13:04:50Z</time>
      </trkpt>
      <trkpt lat="33.96021" lon="-3.04891">
        <ele>1552.925</ele>
        <time>2019-04-10T13:13:48Z</time>
      </trkpt>
      <trkpt lat="33.91131" lon="-3.05715">
        <ele>1544.743</ele>
        <time>2019-04-10T13:25:05Z</time>
      </trkpt>
      <trkpt lat="33.84266" lon="-3.02831">
        <ele>1476.489</ele>
        <time>2019-04-10T13:43:02Z</time>
      </trkpt>
      <trkpt lat="33.76856" lon="-3.04339">
        <ele>1380.844</ele>
        <time>2019-04-10T14:00:08Z</time>
      </trkpt>
      <trkpt lat="33.72032" lon="-3.02667">
        <ele>1339.605</ele>
        <time>2019-04-10T14:11:18Z</time>
      </trkpt>
      <trkpt lat="33.7083" lon="-3.05851">
        <ele>1339.915</ele>
        <time>2019-04-10T14:17:47Z</time>
      </trkpt>
      <trkpt lat="33.65399" lon="-3.1111">
        <ele>1319.408</ele>
        <time>2019-04-10T14:33:20Z</time>
      </trkpt>
      <trkpt lat="33.61138" lon="-3.11173">
        <ele>1327.249</ele>
        <time>2019-04-10T14:43:20Z</time>
      </trkpt>
      <trkpt lat="33.5705" lon="-3.16233">
        <ele>1304.139</ele>
        <time>2019-04-10T14:56:35Z</time>
      </trkpt>
      <trkpt lat="33.57568" lon="-3.18989">
        <ele>1287.67</ele>
        <time>2019-04-10T15:01:50Z</time>
      </trkpt>
      <trkpt lat="33.56616" lon="-3.23165">
        <ele>1268.797</ele>
        <time>2019-04-10T15:10:00Z</time>
      </trkpt>
      <trkpt lat="33.57022" lon="-3.29362">
        <ele>1154.024</ele>
        <time>2019-04-10T15:22:33Z</time>
      </trkpt>
      <trkpt lat="33.58082" lon="-3.31447">
        <ele>1137.543</ele>
        <time>2019-04-10T15:27:08Z</time>
      </trkpt>
      <trkpt lat="33.57959" lon="-3.36418">
        <ele>1089.581</ele>
        <time>2019-04-10T15:36:56Z</time>
      </trkpt>
      <trkpt lat="33.56709" lon="-3.3673">
        <ele>1057.537</ele>
        <time>2019-04-10T15:39:49Z</time>
      </trkpt>
      <trkpt lat="33.54905" lon="-3.45023">
        <ele>950.751</ele>
        <time>2019-04-10T15:56:20Z</time>
      </trkpt>
      <trkpt lat="33.51647" lon="-3.47272">
        <ele>889.701</ele>
        <time>2019-04-10T16:04:56Z</time>
      </trkpt>
      <trkpt lat="33.49607" lon="-3.61339">
        <ele>758.411</ele>
        <time>2019-04-10T16:32:19Z</time>
      </trkpt>
      <trkpt lat="33.35815" lon="-3.65806">
        <ele>798.508</ele>
        <time>2019-04-10T17:04:43Z</time>
      </trkpt>
      <trkpt lat="33.33033" lon="-3.7031">
        <ele>764.87</ele>
        <time>2019-04-10T17:15:34Z</time>
      </trkpt>
      <trkpt lat="33.33162" lon="-3.73503">
        <ele>805.15</ele>
        <time>2019-04-10T17:21:34Z</time>
      </trkpt>
      <trkpt lat="33.2444" lon="-3.82623">
        <ele>817.071</ele>
        <time>2019-04-10T17:47:19Z</time>
      </trkpt>
      <trkpt lat="33.21791" lon="-3.83547">
        <ele>821.998</ele>
        <time>2019-04-10T17:53:42Z</time>
      </trkpt>
      <trkpt lat="33.19581" lon="-3.87049">
        <ele>833.445</ele>
        <time>2019-04-10T18:01:52Z</time>
      </trkpt>
      <trkpt lat="33.13442" lon="-3.91565">
        <ele>861.794</ele>
        <time>2019-04-10T18:17:59Z</time>
      </trkpt>
      <trkpt lat="33.11373" lon="-3.95137">
        <ele>891.732</ele>
        <time>2019-04-10T18:26:09Z</time>
      </trkpt>
      <trkpt lat="33.05611" lon="-3.99028">
        <ele>904.468</ele>
        <time>2019-04-10T18:41:21Z</time>
      </trkpt>
      <trkpt lat="33.04924" lon="-3.98483">
        <ele>878.365</ele>
        <time>2019-04-10T18:43:15Z</time>
      </trkpt>
      <trkpt lat="33.03071" lon="-4.02802">
        <ele>906.268</ele>
        <time>2019-04-10T18:53:05Z</time>
      </trkpt>
      <trkpt lat="33.00767" lon="-4.04084">
        <ele>890.214</ele>
        <time>2019-04-10T18:58:58Z</time>
      </trkpt>
      <trkpt lat="32.98485" lon="-4.08657">
        <ele>933.008</ele>
        <time>2019-04-10T19:09:31Z</time>
      </trkpt>
      <trkpt lat="32.95318" lon="-4.09472">
        <ele>935.321</ele>
        <time>2019-04-10T19:17:32Z</time>
      </trkpt>
      <trkpt lat="32.92981" lon="-4.12863">
        <ele>933.591</ele>
        <time>2019-04-10T19:26:46Z</time>
      </trkpt>
      <trkpt lat="32.92718" lon="-4.11479">
        <ele>938.682</ele>
        <time>2019-04-10T19:29:26Z</time>
      </trkpt>
      <trkpt lat="32.85723" lon="-4.10603">
        <ele>1035.399</ele>
        <time>2019-04-10T19:45:17Z</time>
      </trkpt>
      <trkpt lat="32.8541" lon="-4.08667">
        <ele>1039.026</ele>
        <time>2019-04-10T19:49:03Z</time>
      </trkpt>
      <trkpt lat="32.82801" lon="-4.06828">
        <ele>1125.595</ele>
        <time>2019-04-10T19:56:03Z</time>
      </trkpt>
      <trkpt lat="32.74792" lon="-4.04944">
        <ele>1195.763</ele>
        <time>2019-04-10T20:15:05Z</time>
      </trkpt>
      <trkpt lat="32.72535" lon="-4.06298">
        <ele>1230.489</ele>
        <time>2019-04-10T20:20:53Z</time>
      </trkpt>
      <trkpt lat="32.68542" lon="-4.04077">
        <ele>1352.437</ele>
        <time>2019-04-10T20:31:02Z</time>
      </trkpt>
      <trkpt lat="32.66757" lon="-4.0853">
        <ele>1410.749</ele>
        <time>2019-04-10T20:40:34Z</time>
      </trkpt>
      <trkpt lat="32.64576" lon="-4.04034">
        <ele>1440.313</ele>
        <time>2019-04-10T20:50:48Z</time>
      </trkpt>
      <trkpt lat="32.65646" lon="-4.03347">
        <ele>1404.208</ele>
        <time>2019-04-10T20:53:50Z</time>
      </trkpt>
      <trkpt lat="32.66451" lon="-3.93374">
        <ele>1473.328</ele>
        <time>2019-04-10T21:13:02Z</time>
      </trkpt>
      <trkpt lat="32.65799" lon="-3.91172">
        <ele>1495.638</ele>
        <time>2019-04-10T21:17:30Z</time>
      </trkpt>
      <trkpt lat="32.68486" lon="-3.8042">
        <ele>1402.439</ele>
        <time>2019-04-10T21:39:26Z</time>
      </trkpt>
      <trkpt lat="32.672" lon="-3.74924">
        <ele>1455.136</ele>
        <time>2019-04-10T21:50:21Z</time>
      </trkpt>
      <trkpt lat="32.63939" lon="-3.70194">
        <ele>1566.683</ele>
        <time>2019-04-10T22:02:00Z</time>
      </trkpt>
      <trkpt lat="32.63409" lon="-3.56034">
        <ele>1650.092</ele>
        <time>2019-04-10T22:29:03Z</time>
      </trkpt>
      <trkpt lat="32.60594" lon="-3.55734">
        <ele>1559.98</ele>
        <time>2019-04-10T22:36:04Z</time>
      </trkpt>
      <trkpt lat="32.53384" lon="-3.45428">
        <ele>1349.496</ele>
        <time>2019-04-10T23:03:13Z</time>
      </trkpt>
      <trkpt lat="32.53006" lon="-3.42301">
        <ele>1310.473</ele>
        <time>2019-04-10T23:09:37Z</time>
      </trkpt>
      <trkpt lat="32.50932" lon="-3.40709">
        <ele>1280.785</ele>
        <time>2019-04-10T23:15:14Z</time>
      </trkpt>
      <trkpt lat="32.32322" lon="-3.43948">
        <ele>1122.113</ele>
        <time>2019-04-10T23:57:30Z</time>
      </trkpt>
      <trkpt lat="32.29208" lon="-3.46716">
        <ele>1106.908</ele>
        <time>2019-04-11T00:06:11Z</time>
      </trkpt>
      <trkpt lat="32.29098" lon="-3.48261">
        <ele>1110.632</ele>
        <time>2019-04-11T00:09:14Z</time>
      </trkpt>
      <trkpt lat="32.21133" lon="-3.60693">
        <ele>1160.512</ele>
        <time>2019-04-11T00:38:54Z</time>
      </trkpt>
      <trkpt lat="32.15574" lon="-3.66239">
        <ele>1190.463</ele>
        <time>2019-04-11T00:55:12Z</time>
      </trkpt>
      <trkpt lat="32.07825" lon="-3.78623">
        <ele>1060.54</ele>
        <time>2019-04-11T01:26:13Z</time>
      </trkpt>
      <trkpt lat="32.04551" lon="-3.772">
        <ele>1043.287</ele>
        <time>2019-04-11T01:34:24Z</time>
      </trkpt>
      <trkpt lat="32.02836" lon="-3.78532">
        <ele>1050.646</ele>
        <time>2019-04-11T01:39:10Z</time>
      </trkpt>
      <trkpt lat="32.014" lon="-3.77181">
        <ele>1020.454</ele>
        <time>2019-04-11T01:43:21Z</time>
      </trkpt>
      <trkpt lat="31.99332" lon="-3.80722">
        <ele>1048.01</ele>
        <time>2019-04-11T01:51:33Z</time>
      </trkpt>
      <trkpt lat="31.97935" lon="-3.8653">
        <ele>1055.195</ele>
        <time>2019-04-11T02:02:57Z</time>
      </trkpt>
      <trkpt lat="31.98757" lon="-3.94789">
        <ele>1097.549</ele>
        <time>2019-04-11T02:18:39Z</time>
      </trkpt>
      <trkpt lat="31.96974" lon="-4.02126">
        <ele>1075.323</ele>
        <time>2019-04-11T02:33:04Z</time>
      </trkpt>
      <trkpt lat="31.91" lon="-4.15178">
        <ele>1028.708</ele>
        <time>2019-04-11T03:01:03Z</time>
      </trkpt>
      <trkpt lat="31.89266" lon="-4.21815">
        <ele>1011.494</ele>
        <time>2019-04-11T03:14:09Z</time>
      </trkpt>
      <trkpt lat="31.86027" lon="-4.26752">
        <ele>964.314</ele>
        <time>2019-04-11T03:26:03Z</time>
      </trkpt>
      <trkpt lat="31.84351" lon="-4.24885">
        <ele>970.265</ele>
        <time>2019-04-11T03:31:18Z</time>
      </trkpt>
      <trkpt lat="31.78927" lon="-4.23805">
        <ele>1013.942</ele>
        <time>2019-04-11T03:43:45Z</time>
      </trkpt>
      <trkpt lat="31.76334" lon="-4.202">
        <ele>925.269</ele>
        <time>2019-04-11T03:53:03Z</time>
      </trkpt>
      <trkpt lat="31.72975" lon="-4.19728">
        <ele>941.488</ele>
        <time>2019-04-11T04:01:05Z</time>
      </trkpt>
      <trkpt lat="31.71571" lon="-4.18202">
        <ele>905.116</ele>
        <time>2019-04-11T04:05:29Z</time>
      </trkpt>
      <trkpt lat="31.70214" lon="-4.18883">
        <ele>900.612</ele>
        <time>2019-04-11T04:08:52Z</time>
      </trkpt>
      <trkpt lat="31.68476" lon="-4.17806">
        <ele>887.222</ele>
        <time>2019-04-11T04:13:21Z</time>
      </trkpt>
      <trkpt lat="31.66753" lon="-4.19093">
        <ele>882.662</ele>
        <time>2019-04-11T04:18:02Z</time>
      </trkpt>
      <trkpt lat="31.65278" lon="-4.18697">
        <ele>882.008</ele>
        <time>2019-04-11T04:21:26Z</time>
      </trkpt>
      <trkpt lat="31.6155" lon="-4.20629">
        <ele>874.808</ele>
        <time>2019-04-11T04:30:33Z</time>
      </trkpt>
      <trkpt lat="31.55986" lon="-4.18412">
        <ele>845.037</ele>
        <time>2019-04-11T04:43:49Z</time>
      </trkpt>
      <trkpt lat="31.53005" lon="-4.18473">
        <ele>836.037</ele>
        <time>2019-04-11T04:50:28Z</time>
      </trkpt>
      <trkpt lat="31.48276" lon="-4.21672">
        <ele>815.088</ele>
        <time>2019-04-11T05:02:59Z</time>
      </trkpt>
      <trkpt lat="31.46324" lon="-4.21691">
        <ele>811.895</ele>
        <time>2019-04-11T05:07:26Z</time>
      </trkpt>
      <trkpt lat="31.35231" lon="-4.29005">
        <ele>775.292</ele>
        <time>2019-04-11T05:36:54Z</time>
      </trkpt>
      <trkpt lat="31.27796" lon="-4.28611">
        <ele>760.841</ele>
        <time>2019-04-11T05:54:02Z</time>
      </trkpt>
      <trkpt lat="31.29385" lon="-4.24485">
        <ele>760.099</ele>
        <time>2019-04-11T06:03:01Z</time>
      </trkpt>
      <trkpt lat="31.29389" lon="-4.18471">
        <ele>751.165</ele>
        <time>2019-04-11T06:15:37Z</time>
      </trkpt>
      <trkpt lat="31.25295" lon="-4.13903">
        <ele>746.235</ele>
        <time>2019-04-11T06:28:28Z</time>
      </trkpt>
      <trkpt lat="31.13815" lon="-4.05274">
        <ele>717.686</ele>
        <time>2019-04-11T06:59:04Z</time>
      </trkpt>
      <trkpt lat="31.14021" lon="-4.02541">
        <ele>711.514</ele>
        <time>2019-04-11T07:04:17Z</time>
      </trkpt>
      <trkpt lat="31.05472" lon="-4.0132">
        <ele>698.608</ele>
        <time>2019-04-11T07:25:46Z</time>
      </trkpt>
      <trkpt lat="31.04695" lon="-4.00284">
        <ele>696.128</ele>
        <time>2019-04-11T07:28:31Z</time>
      </trkpt>
      <trkpt lat="31.05382" lon="-4.01276">
        <ele>698.038</ele>
        <time>2019-04-11T07:31:31Z</time>
      </trkpt>
      <trkpt lat="31.0943" lon="-4.01743">
        <ele>698.119</ele>
        <time>2019-04-11T07:40:54Z</time>
      </trkpt>
      <trkpt lat="31.1044" lon="-4.0569">
        <ele>704.766</ele>
        <time>2019-04-11T07:50:56Z</time>
      </trkpt>
      <trkpt lat="31.12457" lon="-4.0431">
        <ele>716.353</ele>
        <time>2019-04-11T07:56:27Z</time>
      </trkpt>
      <trkpt lat="31.25109" lon="-4.13721">
        <ele>745.922</ele>
        <time>2019-04-11T08:30:08Z</time>
      </trkpt>
      <trkpt lat="31.29364" lon="-4.18447">
        <ele>751.45</ele>
        <time>2019-04-11T08:43:25Z</time>
      </trkpt>
      <trkpt lat="31.29373" lon="-4.24482">
        <ele>760.486</ele>
        <time>2019-04-11T08:56:03Z</time>
      </trkpt>
      <trkpt lat="31.27775" lon="-4.28511">
        <ele>760.118</ele>
        <time>2019-04-11T09:05:48Z</time>
      </trkpt>
      <trkpt lat="31.2887" lon="-4.29081">
        <ele>760.198</ele>
        <time>2019-04-11T09:08:30Z</time>
      </trkpt>
      <trkpt lat="31.28745" lon="-4.3188">
        <ele>756.317</ele>
        <time>2019-04-11T09:13:58Z</time>
      </trkpt>
      <trkpt lat="31.27378" lon="-4.33806">
        <ele>750.208</ele>
        <time>2019-04-11T09:18:44Z</time>
      </trkpt>
      <trkpt lat="31.26027" lon="-4.46702">
        <ele>801.166</ele>
        <time>2019-04-11T09:43:52Z</time>
      </trkpt>
      <trkpt lat="31.24506" lon="-4.48738">
        <ele>785.346</ele>
        <time>2019-04-11T09:49:13Z</time>
      </trkpt>
      <trkpt lat="31.2388" lon="-4.52357">
        <ele>804.937</ele>
        <time>2019-04-11T09:56:32Z</time>
      </trkpt>
      <trkpt lat="31.25347" lon="-4.66264">
        <ele>853.444</ele>
        <time>2019-04-11T10:23:39Z</time>
      </trkpt>
      <trkpt lat="31.22978" lon="-4.73816">
        <ele>816.531</ele>
        <time>2019-04-11T10:39:15Z</time>
      </trkpt>
      <trkpt lat="31.19964" lon="-4.91317">
        <ele>837.29</ele>
        <time>2019-04-11T11:13:54Z</time>
      </trkpt>
      <trkpt lat="31.13391" lon="-5.14067">
        <ele>905.278</ele>
        <time>2019-04-11T12:01:25Z</time>
      </trkpt>
      <trkpt lat="31.11751" lon="-5.15917">
        <ele>870.064</ele>
        <time>2019-04-11T12:07:10Z</time>
      </trkpt>
      <trkpt lat="31.11665" lon="-5.14993">
        <ele>862.936</ele>
        <time>2019-04-11T12:08:56Z</time>
      </trkpt>
      <trkpt lat="31.11572" lon="-5.16841">
        <ele>879.217</ele>
        <time>2019-04-11T12:12:28Z</time>
      </trkpt>
      <trkpt lat="31.0365" lon="-5.26366">
        <ele>939.918</ele>
        <time>2019-04-11T12:38:04Z</time>
      </trkpt>
      <trkpt lat="30.99795" lon="-5.26656">
        <ele>902.608</ele>
        <time>2019-04-11T12:46:54Z</time>
      </trkpt>
      <trkpt lat="30.95519" lon="-5.28866">
        <ele>868.518</ele>
        <time>2019-04-11T12:57:30Z</time>
      </trkpt>
      <trkpt lat="30.90315" lon="-5.35136">
        <ele>877.278</ele>
        <time>2019-04-11T13:14:50Z</time>
      </trkpt>
      <trkpt lat="30.88626" lon="-5.43158">
        <ele>939.879</ele>
        <time>2019-04-11T13:30:56Z</time>
      </trkpt>
      <trkpt lat="30.87476" lon="-5.44404">
        <ele>939.436</ele>
        <time>2019-04-11T13:34:26Z</time>
      </trkpt>
      <trkpt lat="30.87457" lon="-5.46663">
        <ele>959.013</ele>
        <time>2019-04-11T13:38:49Z</time>
      </trkpt>
      <trkpt lat="30.85342" lon="-5.5106">
        <ele>944.772</ele>
        <time>2019-04-11T13:48:35Z</time>
      </trkpt>
      <trkpt lat="30.80702" lon="-5.48947">
        <ele>878.82</ele>
        <time>2019-04-11T14:00:00Z</time>
      </trkpt>
      <trkpt lat="30.78134" lon="-5.52313">
        <ele>841.146</ele>
        <time>2019-04-11T14:08:58Z</time>
      </trkpt>
      <trkpt lat="30.78376" lon="-5.56008">
        <ele>866.699</ele>
        <time>2019-04-11T14:16:20Z</time>
      </trkpt>
      <trkpt lat="30.76637" lon="-5.56934">
        <ele>862.407</ele>
        <time>2019-04-11T14:21:11Z</time>
      </trkpt>
      <trkpt lat="30.74179" lon="-5.53545">
        <ele>842.227</ele>
        <time>2019-04-11T14:29:43Z</time>
      </trkpt>
      <trkpt lat="30.65974" lon="-5.49214">
        <ele>787.408</ele>
        <time>2019-04-11T14:49:48Z</time>
      </trkpt>
      <trkpt lat="30.6379" lon="-5.49223">
        <ele>783.224</ele>
        <time>2019-04-11T14:54:43Z</time>
      </trkpt>
      <trkpt lat="30.60118" lon="-5.44452">
        <ele>791.244</ele>
        <time>2019-04-11T15:07:01Z</time>
      </trkpt>
      <trkpt lat="30.59695" lon="-5.37254">
        <ele>779.315</ele>
        <time>2019-04-11T15:21:01Z</time>
      </trkpt>
      <trkpt lat="30.60388" lon="-5.35768">
        <ele>783.812</ele>
        <time>2019-04-11T15:24:16Z</time>
      </trkpt>
      <trkpt lat="30.62954" lon="-5.35494">
        <ele>778.349</ele>
        <time>2019-04-11T15:30:15Z</time>
      </trkpt>
      <trkpt lat="30.62627" lon="-5.32851">
        <ele>761.158</ele>
        <time>2019-04-11T15:36:26Z</time>
      </trkpt>
      <trkpt lat="30.61513" lon="-5.32097">
        <ele>826.016</ele>
        <time>2019-04-11T15:40:05Z</time>
      </trkpt>
      <trkpt lat="30.59245" lon="-5.33468">
        <ele>811.542</ele>
        <time>2019-04-11T15:46:00Z</time>
      </trkpt>
      <trkpt lat="30.54657" lon="-5.33313">
        <ele>841.411</ele>
        <time>2019-04-11T15:57:00Z</time>
      </trkpt>
      <trkpt lat="30.48584" lon="-5.42368">
        <ele>845.621</ele>
        <time>2019-04-11T16:19:05Z</time>
      </trkpt>
      <trkpt lat="30.46288" lon="-5.51402">
        <ele>923.703</ele>
        <time>2019-04-11T16:37:31Z</time>
      </trkpt>
      <trkpt lat="30.42286" lon="-5.59202">
        <ele>928.308</ele>
        <time>2019-04-11T16:55:08Z</time>
      </trkpt>
      <trkpt lat="30.42172" lon="-5.62582">
        <ele>845.946</ele>
        <time>2019-04-11T17:01:53Z</time>
      </trkpt>
      <trkpt lat="30.39243" lon="-5.67476">
        <ele>767.486</ele>
        <time>2019-04-11T17:13:21Z</time>
      </trkpt>
      <trkpt lat="30.3775" lon="-5.73675">
        <ele>755.257</ele>
        <time>2019-04-11T17:25:44Z</time>
      </trkpt>
      <trkpt lat="30.31866" lon="-5.8279">
        <ele>725.044</ele>
        <time>2019-04-11T17:48:06Z</time>
      </trkpt>
      <trkpt lat="30.32071" lon="-5.83978">
        <ele>721.281</ele>
        <time>2019-04-11T17:50:48Z</time>
      </trkpt>
      <trkpt lat="30.34371" lon="-5.83725">
        <ele>727.67</ele>
        <time>2019-04-11T17:56:01Z</time>
      </trkpt>
      <trkpt lat="30.32114" lon="-5.84016">
        <ele>723.228</ele>
        <time>2019-04-11T18:01:08Z</time>
      </trkpt>
      <trkpt lat="30.30524" lon="-5.81967">
        <ele>721.574</ele>
        <time>2019-04-11T18:07:24Z</time>
      </trkpt>
      <trkpt lat="30.30368" lon="-5.76448">
        <ele>705.667</ele>
        <time>2019-04-11T18:18:04Z</time>
      </trkpt>
      <trkpt lat="30.2111" lon="-5.56517">
        <ele>657.981</ele>
        <time>2019-04-11T19:02:00Z</time>
      </trkpt>
      <trkpt lat="30.17943" lon="-5.58248">
        <ele>658.119</ele>
        <time>2019-04-11T19:09:51Z</time>
      </trkpt>
      <trkpt lat="30.17134" lon="-5.62714">
        <ele>668.208</ele>
        <time>2019-04-11T19:18:49Z</time>
      </trkpt>
      <trkpt lat="30.08095" lon="-5.62968">
        <ele>741.231</ele>
        <time>2019-04-11T19:39:39Z</time>
      </trkpt>
      <trkpt lat="30.03987" lon="-5.55765">
        <ele>619.931</ele>
        <time>2019-04-11T19:56:46Z</time>
      </trkpt>
      <trkpt lat="29.99088" lon="-5.58407">
        <ele>608.952</ele>
        <time>2019-04-11T20:09:06Z</time>
      </trkpt>
      <trkpt lat="29.91222" lon="-5.60028">
        <ele>673.559</ele>
        <time>2019-04-11T20:27:44Z</time>
      </trkpt>
      <trkpt lat="29.9017" lon="-5.61789">
        <ele>610.256</ele>
        <time>2019-04-11T20:31:52Z</time>
      </trkpt>
      <trkpt lat="29.84795" lon="-5.61473">
        <ele>571.075</ele>
        <time>2019-04-11T20:44:02Z</time>
      </trkpt>
      <trkpt lat="29.83504" lon="-5.62728">
        <ele>566.273</ele>
        <time>2019-04-11T20:47:56Z</time>
      </trkpt>
      <trkpt lat="29.82083" lon="-5.71865">
        <ele>543.659</ele>
        <time>2019-04-11T21:08:36Z</time>
      </trkpt>
      <trkpt lat="29.83798" lon="-5.76101">
        <ele>540.548</ele>
        <time>2019-04-13T07:18:52Z</time>
      </trkpt>
      <trkpt lat="29.83152" lon="-5.79709">
        <ele>532.961</ele>
        <time>2019-04-13T07:26:23Z</time>
      </trkpt>
      <trkpt lat="29.83802" lon="-5.76094">
        <ele>540.517</ele>
        <time>2019-04-13T07:33:56Z</time>
      </trkpt>
      <trkpt lat="29.82127" lon="-5.71753">
        <ele>545.908</ele>
        <time>2019-04-13T07:43:58Z</time>
      </trkpt>
      <trkpt lat="29.82879" lon="-5.71198">
        <ele>547.169</ele>
        <time>2019-04-13T07:47:42Z</time>
      </trkpt>
      <trkpt lat="29.82434" lon="-5.67822">
        <ele>556.179</ele>
        <time>2019-04-13T07:54:56Z</time>
      </trkpt>
      <trkpt lat="29.83756" lon="-5.62149">
        <ele>567.99</ele>
        <time>2019-04-13T08:06:50Z</time>
      </trkpt>
      <trkpt lat="29.89843" lon="-5.61926">
        <ele>602.247</ele>
        <time>2019-04-13T08:20:51Z</time>
      </trkpt>
      <trkpt lat="29.91327" lon="-5.59925">
        <ele>674.334</ele>
        <time>2019-04-13T08:26:04Z</time>
      </trkpt>
      <trkpt lat="29.99045" lon="-5.58416">
        <ele>609.063</ele>
        <time>2019-04-13T08:44:27Z</time>
      </trkpt>
      <trkpt lat="30.03908" lon="-5.55773">
        <ele>620.331</ele>
        <time>2019-04-13T08:56:41Z</time>
      </trkpt>
      <trkpt lat="30.08056" lon="-5.62937">
        <ele>739.967</ele>
        <time>2019-04-13T09:13:50Z</time>
      </trkpt>
      <trkpt lat="30.12535" lon="-5.63396">
        <ele>814.886</ele>
        <time>2019-04-13T09:24:16Z</time>
      </trkpt>
      <trkpt lat="30.17742" lon="-5.62263">
        <ele>667.56</ele>
        <time>2019-04-13T09:36:50Z</time>
      </trkpt>
      <trkpt lat="30.18223" lon="-5.57974">
        <ele>660.026</ele>
        <time>2019-04-13T09:45:36Z</time>
      </trkpt>
      <trkpt lat="30.20975" lon="-5.56474">
        <ele>659.408</ele>
        <time>2019-04-13T09:52:22Z</time>
      </trkpt>
      <trkpt lat="30.30404" lon="-5.76602">
        <ele>706.613</ele>
        <time>2019-04-13T10:36:52Z</time>
      </trkpt>
      <trkpt lat="30.3057" lon="-5.82066">
        <ele>719.993</ele>
        <time>2019-04-13T10:47:26Z</time>
      </trkpt>
      <trkpt lat="30.32253" lon="-5.8402">
        <ele>728.034</ele>
        <time>2019-04-13T10:53:50Z</time>
      </trkpt>
      <trkpt lat="30.37766" lon="-5.84523">
        <ele>740.491</ele>
        <time>2019-04-13T11:06:29Z</time>
      </trkpt>
      <trkpt lat="30.40621" lon="-5.87004">
        <ele>752.388</ele>
        <time>2019-04-13T11:14:28Z</time>
      </trkpt>
      <trkpt lat="30.42513" lon="-5.92179">
        <ele>758.387</ele>
        <time>2019-04-13T11:25:22Z</time>
      </trkpt>
      <trkpt lat="30.45213" lon="-5.95721">
        <ele>771.595</ele>
        <time>2019-04-13T11:34:28Z</time>
      </trkpt>
      <trkpt lat="30.4445" lon="-5.97599">
        <ele>785.571</ele>
        <time>2019-04-13T11:38:32Z</time>
      </trkpt>
      <trkpt lat="30.47417" lon="-6.07031">
        <ele>796.128</ele>
        <time>2019-04-13T11:58:21Z</time>
      </trkpt>
      <trkpt lat="30.50268" lon="-6.10241">
        <ele>806.089</ele>
        <time>2019-04-13T12:07:25Z</time>
      </trkpt>
      <trkpt lat="30.5286" lon="-6.10771">
        <ele>808.817</ele>
        <time>2019-04-13T12:13:21Z</time>
      </trkpt>
      <trkpt lat="30.59446" lon="-6.16395">
        <ele>834.008</ele>
        <time>2019-04-13T12:31:50Z</time>
      </trkpt>
      <trkpt lat="30.62735" lon="-6.16425">
        <ele>839.047</ele>
        <time>2019-04-13T12:39:18Z</time>
      </trkpt>
      <trkpt lat="30.66751" lon="-6.14236">
        <ele>858.657</ele>
        <time>2019-04-13T12:49:29Z</time>
      </trkpt>
      <trkpt lat="30.68363" lon="-6.17571">
        <ele>865.428</ele>
        <time>2019-04-13T12:57:02Z</time>
      </trkpt>
      <trkpt lat="30.69707" lon="-6.24799">
        <ele>889.685</ele>
        <time>2019-04-13T13:11:36Z</time>
      </trkpt>
      <trkpt lat="30.67619" lon="-6.27528">
        <ele>891.422</ele>
        <time>2019-04-13T13:18:51Z</time>
      </trkpt>
      <trkpt lat="30.6656" lon="-6.32066">
        <ele>971.621</ele>
        <time>2019-04-13T13:28:19Z</time>
      </trkpt>
      <trkpt lat="30.67006" lon="-6.40472">
        <ele>918.889</ele>
        <time>2019-04-13T13:45:12Z</time>
      </trkpt>
      <trkpt lat="30.71199" lon="-6.50084">
        <ele>1031.865</ele>
        <time>2019-04-13T14:06:58Z</time>
      </trkpt>
      <trkpt lat="30.71588" lon="-6.5347">
        <ele>1133.075</ele>
        <time>2019-04-13T14:13:35Z</time>
      </trkpt>
      <trkpt lat="30.72718" lon="-6.53242">
        <ele>1221.128</ele>
        <time>2019-04-13T14:16:50Z</time>
      </trkpt>
      <trkpt lat="30.72308" lon="-6.5632">
        <ele>1411.42</ele>
        <time>2019-04-13T14:22:58Z</time>
      </trkpt>
      <trkpt lat="30.70526" lon="-6.59242">
        <ele>1643.108</ele>
        <time>2019-04-13T14:31:29Z</time>
      </trkpt>
      <trkpt lat="30.72605" lon="-6.60766">
        <ele>1691.162</ele>
        <time>2019-04-13T14:39:52Z</time>
      </trkpt>
      <trkpt lat="30.71775" lon="-6.62111">
        <ele>1599.432</ele>
        <time>2019-04-13T14:43:10Z</time>
      </trkpt>
      <trkpt lat="30.72981" lon="-6.62385">
        <ele>1505.123</ele>
        <time>2019-04-13T14:46:01Z</time>
      </trkpt>
      <trkpt lat="30.73664" lon="-6.66449">
        <ele>1479.41</ele>
        <time>2019-04-13T14:54:31Z</time>
      </trkpt>
      <trkpt lat="30.74938" lon="-6.6731">
        <ele>1526.197</ele>
        <time>2019-04-13T14:57:56Z</time>
      </trkpt>
      <trkpt lat="30.74803" lon="-6.68928">
        <ele>1569.736</ele>
        <time>2019-04-13T15:01:06Z</time>
      </trkpt>
      <trkpt lat="30.77411" lon="-6.68436">
        <ele>1444.164</ele>
        <time>2019-04-13T15:07:21Z</time>
      </trkpt>
      <trkpt lat="30.79983" lon="-6.74645">
        <ele>1339.26</ele>
        <time>2019-04-13T15:21:30Z</time>
      </trkpt>
      <trkpt lat="30.83576" lon="-6.78863">
        <ele>1203.618</ele>
        <time>2019-04-13T15:33:02Z</time>
      </trkpt>
      <trkpt lat="30.86735" lon="-6.87104">
        <ele>1140.398</ele>
        <time>2019-04-13T15:50:55Z</time>
      </trkpt>
      <trkpt lat="30.90052" lon="-6.91106">
        <ele>1130.617</ele>
        <time>2019-04-13T16:01:49Z</time>
      </trkpt>
      <trkpt lat="30.92466" lon="-6.89224">
        <ele>1123.308</ele>
        <time>2019-04-13T16:09:19Z</time>
      </trkpt>
      <trkpt lat="30.94117" lon="-6.96669">
        <ele>1147.436</ele>
        <time>2019-04-13T16:24:45Z</time>
      </trkpt>
      <trkpt lat="30.92494" lon="-6.93324">
        <ele>1129.126</ele>
        <time>2019-04-13T16:32:38Z</time>
      </trkpt>
      <trkpt lat="30.92674" lon="-6.88989">
        <ele>1127.887</ele>
        <time>2019-04-13T16:41:51Z</time>
      </trkpt>
      <trkpt lat="30.9668" lon="-6.84138">
        <ele>1173.114</ele>
        <time>2019-04-13T16:55:30Z</time>
      </trkpt>
      <trkpt lat="30.99776" lon="-6.84817">
        <ele>1210.761</ele>
        <time>2019-04-13T17:04:13Z</time>
      </trkpt>
      <trkpt lat="30.97155" lon="-6.83166">
        <ele>1144.06</ele>
        <time>2019-04-13T17:11:42Z</time>
      </trkpt>
      <trkpt lat="30.98046" lon="-6.79341">
        <ele>1158.548</ele>
        <time>2019-04-13T17:19:15Z</time>
      </trkpt>
      <trkpt lat="30.97483" lon="-6.72551">
        <ele>1137.284</ele>
        <time>2019-04-13T17:32:44Z</time>
      </trkpt>
      <trkpt lat="31.01299" lon="-6.59847">
        <ele>1157.697</ele>
        <time>2019-04-13T17:59:15Z</time>
      </trkpt>
      <trkpt lat="31.06548" lon="-6.54604">
        <ele>1221.523</ele>
        <time>2019-04-13T18:15:18Z</time>
      </trkpt>
      <trkpt lat="31.11294" lon="-6.41421">
        <ele>1381.325</ele>
        <time>2019-04-13T18:43:11Z</time>
      </trkpt>
      <trkpt lat="31.10772" lon="-6.37792">
        <ele>1300.908</ele>
        <time>2019-04-13T18:50:22Z</time>
      </trkpt>
      <trkpt lat="31.13517" lon="-6.34882">
        <ele>1293.144</ele>
        <time>2019-04-13T18:58:40Z</time>
      </trkpt>
      <trkpt lat="31.13226" lon="-6.33315">
        <ele>1307.544</ele>
        <time>2019-04-13T19:01:46Z</time>
      </trkpt>
      <trkpt lat="31.19819" lon="-6.19771">
        <ele>1372.415</ele>
        <time>2019-04-13T19:31:41Z</time>
      </trkpt>
      <trkpt lat="31.19836" lon="-6.15963">
        <ele>1389.932</ele>
        <time>2019-04-13T19:39:53Z</time>
      </trkpt>
      <trkpt lat="31.23316" lon="-6.1372">
        <ele>1422.459</ele>
        <time>2019-04-13T19:49:01Z</time>
      </trkpt>
      <trkpt lat="31.24654" lon="-6.0913">
        <ele>1439.888</ele>
        <time>2019-04-13T19:58:27Z</time>
      </trkpt>
      <trkpt lat="31.32135" lon="-6.01597">
        <ele>1499.386</ele>
        <time>2019-04-13T20:21:02Z</time>
      </trkpt>
      <trkpt lat="31.37468" lon="-5.99195">
        <ele>1525.182</ele>
        <time>2019-04-13T20:33:50Z</time>
      </trkpt>
      <trkpt lat="31.3665" lon="-5.98639">
        <ele>1581.581</ele>
        <time>2019-04-13T20:36:28Z</time>
      </trkpt>
      <trkpt lat="31.37793" lon="-5.98134">
        <ele>1604.461</ele>
        <time>2019-04-13T20:40:45Z</time>
      </trkpt>
      <trkpt lat="31.36773" lon="-5.98115">
        <ele>1583.717</ele>
        <time>2019-04-15T06:20:00Z</time>
      </trkpt>
      <trkpt lat="31.37453" lon="-5.99267">
        <ele>1531.208</ele>
        <time>2019-04-15T06:23:50Z</time>
      </trkpt>
      <trkpt lat="31.32786" lon="-6.01137">
        <ele>1503.723</ele>
        <time>2019-04-15T06:34:50Z</time>
      </trkpt>
      <trkpt lat="31.24741" lon="-6.08893">
        <ele>1437.033</ele>
        <time>2019-04-15T06:58:36Z</time>
      </trkpt>
      <trkpt lat="31.23815" lon="-6.1278">
        <ele>1429.484</ele>
        <time>2019-04-15T07:06:24Z</time>
      </trkpt>
      <trkpt lat="31.25651" lon="-6.12583">
        <ele>1440.951</ele>
        <time>2019-04-15T07:10:39Z</time>
      </trkpt>
      <trkpt lat="31.25823" lon="-6.1354">
        <ele>1451.548</ele>
        <time>2019-04-15T07:13:24Z</time>
      </trkpt>
      <trkpt lat="31.31203" lon="-6.15765">
        <ele>1504.657</ele>
        <time>2019-04-15T07:27:11Z</time>
      </trkpt>
      <trkpt lat="31.31096" lon="-6.16908">
        <ele>1488.475</ele>
        <time>2019-04-15T07:29:37Z</time>
      </trkpt>
      <trkpt lat="31.32534" lon="-6.16859">
        <ele>1544.091</ele>
        <time>2019-04-15T07:33:03Z</time>
      </trkpt>
      <trkpt lat="31.33131" lon="-6.18303">
        <ele>1514.242</ele>
        <time>2019-04-15T07:36:19Z</time>
      </trkpt>
      <trkpt lat="31.35032" lon="-6.15676">
        <ele>1576.422</ele>
        <time>2019-04-15T07:43:29Z</time>
      </trkpt>
      <trkpt lat="31.36818" lon="-6.17133">
        <ele>1549.814</ele>
        <time>2019-04-15T07:49:10Z</time>
      </trkpt>
      <trkpt lat="31.38835" lon="-6.12911">
        <ele>1574.708</ele>
        <time>2019-04-15T07:58:59Z</time>
      </trkpt>
      <trkpt lat="31.40352" lon="-6.1467">
        <ele>1633.219</ele>
        <time>2019-04-15T08:04:17Z</time>
      </trkpt>
      <trkpt lat="31.38476" lon="-6.13151">
        <ele>1595.649</ele>
        <time>2019-04-15T08:10:32Z</time>
      </trkpt>
      <trkpt lat="31.40518" lon="-6.07412">
        <ele>1716.14</ele>
        <time>2019-04-15T08:22:59Z</time>
      </trkpt>
      <trkpt lat="31.40162" lon="-6.02518">
        <ele>1649.247</ele>
        <time>2019-04-15T08:33:15Z</time>
      </trkpt>
      <trkpt lat="31.41309" lon="-6.00228">
        <ele>1564.384</ele>
        <time>2019-04-15T08:39:12Z</time>
      </trkpt>
      <trkpt lat="31.44417" lon="-6.01389">
        <ele>1652.333</ele>
        <time>2019-04-15T08:47:53Z</time>
      </trkpt>
      <trkpt lat="31.43946" lon="-5.99123">
        <ele>1622.971</ele>
        <time>2019-04-15T08:52:54Z</time>
      </trkpt>
      <trkpt lat="31.45241" lon="-5.96917">
        <ele>1621.127</ele>
        <time>2019-04-15T08:58:44Z</time>
      </trkpt>
      <trkpt lat="31.45767" lon="-5.97622">
        <ele>1641.779</ele>
        <time>2019-04-15T09:00:33Z</time>
      </trkpt>
      <trkpt lat="31.56414" lon="-5.90628">
        <ele>1747.105</ele>
        <time>2019-04-15T09:30:14Z</time>
      </trkpt>
      <trkpt lat="31.57859" lon="-5.88119">
        <ele>1798.825</ele>
        <time>2019-04-15T09:37:56Z</time>
      </trkpt>
      <trkpt lat="31.62999" lon="-5.84022">
        <ele>1838.408</ele>
        <time>2019-04-15T09:55:09Z</time>
      </trkpt>
      <trkpt lat="31.6508" lon="-5.84718">
        <ele>2007.482</ele>
        <time>2019-04-15T10:01:24Z</time>
      </trkpt>
      <trkpt lat="31.66352" lon="-5.82994">
        <ele>1966.412</ele>
        <time>2019-04-15T10:07:03Z</time>
      </trkpt>
      <trkpt lat="31.67316" lon="-5.83404">
        <ele>1928.143</ele>
        <time>2019-04-15T10:10:14Z</time>
      </trkpt>
      <trkpt lat="31.7186" lon="-5.8021">
        <ele>2028.35</ele>
        <time>2019-04-15T10:23:18Z</time>
      </trkpt>
      <trkpt lat="31.72826" lon="-5.7654">
        <ele>2158.737</ele>
        <time>2019-04-15T10:34:33Z</time>
      </trkpt>
      <trkpt lat="31.71968" lon="-5.70666">
        <ele>2414.596</ele>
        <time>2019-04-15T10:47:24Z</time>
      </trkpt>
      <trkpt lat="31.75425" lon="-5.67827">
        <ele>2484.424</ele>
        <time>2019-04-15T11:00:25Z</time>
      </trkpt>
      <trkpt lat="31.75314" lon="-5.62687">
        <ele>2241.53</ele>
        <time>2019-04-15T11:12:23Z</time>
      </trkpt>
      <trkpt lat="31.74021" lon="-5.60487">
        <ele>2140.017</ele>
        <time>2019-04-15T11:18:01Z</time>
      </trkpt>
      <trkpt lat="31.74086" lon="-5.56006">
        <ele>2118.587</ele>
        <time>2019-04-15T11:27:54Z</time>
      </trkpt>
      <trkpt lat="31.71655" lon="-5.53263">
        <ele>1852.015</ele>
        <time>2019-04-15T11:38:22Z</time>
      </trkpt>
      <trkpt lat="31.68113" lon="-5.53788">
        <ele>1775.908</ele>
        <time>2019-04-15T11:46:40Z</time>
      </trkpt>
      <trkpt lat="31.68386" lon="-5.52057">
        <ele>1779.956</ele>
        <time>2019-04-15T11:50:20Z</time>
      </trkpt>
      <trkpt lat="31.75465" lon="-5.48144">
        <ele>1985.986</ele>
        <time>2019-04-15T12:09:28Z</time>
      </trkpt>
      <trkpt lat="31.7812" lon="-5.45212">
        <ele>1956.517</ele>
        <time>2019-04-15T12:17:48Z</time>
      </trkpt>
      <trkpt lat="31.78386" lon="-5.43151">
        <ele>1935.564</ele>
        <time>2019-04-15T12:21:45Z</time>
      </trkpt>
      <trkpt lat="31.81033" lon="-5.4065">
        <ele>1909.041</ele>
        <time>2019-04-15T12:29:33Z</time>
      </trkpt>
      <trkpt lat="31.83987" lon="-5.35328">
        <ele>1838.03</ele>
        <time>2019-04-15T12:43:14Z</time>
      </trkpt>
      <trkpt lat="31.87078" lon="-5.33558">
        <ele>1789.748</ele>
        <time>2019-04-15T12:53:00Z</time>
      </trkpt>
      <trkpt lat="31.86563" lon="-5.32867">
        <ele>1780.964</ele>
        <time>2019-04-15T12:54:53Z</time>
      </trkpt>
      <trkpt lat="31.89773" lon="-5.31734">
        <ele>1725.814</ele>
        <time>2019-04-15T13:04:52Z</time>
      </trkpt>
      <trkpt lat="31.90154" lon="-5.29792">
        <ele>1702.154</ele>
        <time>2019-04-15T13:08:46Z</time>
      </trkpt>
      <trkpt lat="31.91613" lon="-5.2874">
        <ele>1690.109</ele>
        <time>2019-04-15T13:12:44Z</time>
      </trkpt>
      <trkpt lat="31.91838" lon="-5.25841">
        <ele>1666.208</ele>
        <time>2019-04-15T13:18:31Z</time>
      </trkpt>
      <trkpt lat="31.95028" lon="-5.20594">
        <ele>1641.956</ele>
        <time>2019-04-15T13:30:52Z</time>
      </trkpt>
      <trkpt lat="32.0075" lon="-5.16369">
        <ele>1495.426</ele>
        <time>2019-04-15T13:47:10Z</time>
      </trkpt>
      <trkpt lat="32.00416" lon="-5.11976">
        <ele>1451.897</ele>
        <time>2019-04-15T13:58:16Z</time>
      </trkpt>
      <trkpt lat="31.99627" lon="-5.11725">
        <ele>1434.484</ele>
        <time>2019-04-15T14:00:10Z</time>
      </trkpt>
      <trkpt lat="32.00746" lon="-5.10601">
        <ele>1415.481</ele>
        <time>2019-04-15T14:03:56Z</time>
      </trkpt>
      <trkpt lat="32.01315" lon="-5.06369">
        <ele>1387.55</ele>
        <time>2019-04-15T14:15:48Z</time>
      </trkpt>
      <trkpt lat="31.99048" lon="-4.99721">
        <ele>1307.098</ele>
        <time>2019-04-15T14:30:29Z</time>
      </trkpt>
      <trkpt lat="31.94107" lon="-5.00826">
        <ele>1307.164</ele>
        <time>2019-04-15T14:43:33Z</time>
      </trkpt>
      <trkpt lat="31.90353" lon="-4.95367">
        <ele>1206.839</ele>
        <time>2019-04-15T15:01:18Z</time>
      </trkpt>
      <trkpt lat="31.90549" lon="-4.93283">
        <ele>1194.401</ele>
        <time>2019-04-15T15:05:27Z</time>
      </trkpt>
      <trkpt lat="31.89256" lon="-4.92507">
        <ele>1175.121</ele>
        <time>2019-04-15T15:09:23Z</time>
      </trkpt>
      <trkpt lat="31.83439" lon="-4.96795">
        <ele>1123.308</ele>
        <time>2019-04-15T15:25:50Z</time>
      </trkpt>
      <trkpt lat="31.8118" lon="-4.95142">
        <ele>1097.768</ele>
        <time>2019-04-15T15:32:17Z</time>
      </trkpt>
      <trkpt lat="31.7519" lon="-4.9841">
        <ele>1060.268</ele>
        <time>2019-04-15T15:47:24Z</time>
      </trkpt>
      <trkpt lat="31.69955" lon="-4.97585">
        <ele>1034.499</ele>
        <time>2019-04-15T15:59:40Z</time>
      </trkpt>
      <trkpt lat="31.69316" lon="-4.95318">
        <ele>1026.796</ele>
        <time>2019-04-15T16:04:28Z</time>
      </trkpt>
      <trkpt lat="31.53942" lon="-5.0111">
        <ele>987.833</ele>
        <time>2019-04-15T16:40:44Z</time>
      </trkpt>
      <trkpt lat="31.52052" lon="-5.00808">
        <ele>988.412</ele>
        <time>2019-04-15T16:45:03Z</time>
      </trkpt>
      <trkpt lat="31.48178" lon="-5.14676">
        <ele>1045.34</ele>
        <time>2019-04-15T17:13:02Z</time>
      </trkpt>
      <trkpt lat="31.46409" lon="-5.1757">
        <ele>1061.516</ele>
        <time>2019-04-15T17:19:48Z</time>
      </trkpt>
      <trkpt lat="31.44477" lon="-5.32641">
        <ele>1129.136</ele>
        <time>2019-04-15T17:48:59Z</time>
      </trkpt>
      <trkpt lat="31.50893" lon="-5.49153">
        <ele>1264.817</ele>
        <time>2019-04-15T18:23:47Z</time>
      </trkpt>
      <trkpt lat="31.53057" lon="-5.51822">
        <ele>1296.818</ele>
        <time>2019-04-15T18:30:48Z</time>
      </trkpt>
      <trkpt lat="31.52603" lon="-5.52999">
        <ele>1283.708</ele>
        <time>2019-04-15T18:34:19Z</time>
      </trkpt>
      <trkpt lat="31.54623" lon="-5.58855">
        <ele>1368.088</ele>
        <time>2019-04-15T18:49:51Z</time>
      </trkpt>
      <trkpt lat="31.56817" lon="-5.5781">
        <ele>1414.948</ele>
        <time>2019-04-15T18:56:01Z</time>
      </trkpt>
      <trkpt lat="31.58926" lon="-5.59657">
        <ele>1446.329</ele>
        <time>2019-04-15T19:03:15Z</time>
      </trkpt>
      <trkpt lat="31.6208" lon="-5.56036">
        <ele>1580.736</ele>
        <time>2019-04-15T19:14:00Z</time>
      </trkpt>
      <trkpt lat="31.61782" lon="-5.57806">
        <ele>1641.693</ele>
        <time>2019-04-15T19:18:50Z</time>
      </trkpt>
      <trkpt lat="31.63779" lon="-5.58319">
        <ele>1674.162</ele>
        <time>2019-04-15T19:24:06Z</time>
      </trkpt>
      <trkpt lat="31.65549" lon="-5.5721">
        <ele>1708.83</ele>
        <time>2019-04-15T19:29:20Z</time>
      </trkpt>
      <trkpt lat="31.66072" lon="-5.58005">
        <ele>1730.236</ele>
        <time>2019-04-15T19:32:33Z</time>
      </trkpt>
      <trkpt lat="31.66137" lon="-5.56083">
        <ele>1724.813</ele>
        <time>2019-04-15T19:36:38Z</time>
      </trkpt>
      <trkpt lat="31.68094" lon="-5.54176">
        <ele>1770.343</ele>
        <time>2019-04-15T19:43:21Z</time>
      </trkpt>
      <trkpt lat="31.68315" lon="-5.52139">
        <ele>1786.507</ele>
        <time>2019-04-15T19:47:36Z</time>
      </trkpt>
      <trkpt lat="31.75412" lon="-5.48182">
        <ele>1985.508</ele>
        <time>2019-04-15T20:06:48Z</time>
      </trkpt>
      <trkpt lat="31.78184" lon="-5.45271">
        <ele>1959.256</ele>
        <time>2019-04-15T20:15:18Z</time>
      </trkpt>
      <trkpt lat="31.81827" lon="-5.47369">
        <ele>2033.066</ele>
        <time>2019-04-15T20:24:51Z</time>
      </trkpt>
      <trkpt lat="31.86295" lon="-5.45544">
        <ele>2351.357</ele>
        <time>2019-04-15T20:36:34Z</time>
      </trkpt>
      <trkpt lat="31.8567" lon="-5.46384">
        <ele>2462.354</ele>
        <time>2019-04-15T20:39:24Z</time>
      </trkpt>
      <trkpt lat="31.87071" lon="-5.47634">
        <ele>2632.371</ele>
        <time>2019-04-15T20:43:59Z</time>
      </trkpt>
      <trkpt lat="31.94869" lon="-5.47461">
        <ele>2442.63</ele>
        <time>2019-04-15T21:02:54Z</time>
      </trkpt>
      <trkpt lat="31.98009" lon="-5.49386">
        <ele>2378.668</ele>
        <time>2019-04-15T21:11:36Z</time>
      </trkpt>
      <trkpt lat="31.99453" lon="-5.48109">
        <ele>2364.624</ele>
        <time>2019-04-15T21:16:08Z</time>
      </trkpt>
      <trkpt lat="32.00953" lon="-5.49018">
        <ele>2345.565</ele>
        <time>2019-04-15T21:20:49Z</time>
      </trkpt>
      <trkpt lat="32.02663" lon="-5.47035">
        <ele>2318.268</ele>
        <time>2019-04-15T21:27:55Z</time>
      </trkpt>
      <trkpt lat="32.0724" lon="-5.46955">
        <ele>2282.314</ele>
        <time>2019-04-15T21:39:22Z</time>
      </trkpt>
      <trkpt lat="32.10168" lon="-5.51322">
        <ele>2275.108</ele>
        <time>2019-04-15T21:50:32Z</time>
      </trkpt>
      <trkpt lat="32.10953" lon="-5.55015">
        <ele>2230.881</ele>
        <time>2019-04-15T21:58:17Z</time>
      </trkpt>
      <trkpt lat="32.1357" lon="-5.56025">
        <ele>2215.231</ele>
        <time>2019-04-15T22:05:23Z</time>
      </trkpt>
      <trkpt lat="32.1423" lon="-5.57609">
        <ele>2200.572</ele>
        <time>2019-04-15T22:09:02Z</time>
      </trkpt>
      <trkpt lat="32.15286" lon="-5.57611">
        <ele>2195.749</ele>
        <time>2019-04-15T22:11:29Z</time>
      </trkpt>
      <trkpt lat="32.16013" lon="-5.60263">
        <ele>2172.036</ele>
        <time>2019-04-15T22:17:59Z</time>
      </trkpt>
      <trkpt lat="32.16675" lon="-5.59783">
        <ele>2169.315</ele>
        <time>2019-04-15T22:20:04Z</time>
      </trkpt>
      <trkpt lat="32.15533" lon="-5.631">
        <ele>2156.023</ele>
        <time>2019-04-15T22:27:23Z</time>
      </trkpt>
      <trkpt lat="32.20734" lon="-5.64211">
        <ele>2365.459</ele>
        <time>2019-04-15T22:41:03Z</time>
      </trkpt>
      <trkpt lat="32.20974" lon="-5.69787">
        <ele>2241.178</ele>
        <time>2019-04-15T22:52:30Z</time>
      </trkpt>
      <trkpt lat="32.23583" lon="-5.70858">
        <ele>1904.533</ele>
        <time>2019-04-15T23:01:40Z</time>
      </trkpt>
      <trkpt lat="32.25067" lon="-5.64429">
        <ele>1754.126</ele>
        <time>2019-04-15T23:14:50Z</time>
      </trkpt>
      <trkpt lat="32.27231" lon="-5.64507">
        <ele>1636.808</ele>
        <time>2019-04-15T23:21:15Z</time>
      </trkpt>
      <trkpt lat="32.27653" lon="-5.65547">
        <ele>1620.932</ele>
        <time>2019-04-15T23:23:28Z</time>
      </trkpt>
      <trkpt lat="32.32094" lon="-5.65315">
        <ele>1535.312</ele>
        <time>2019-04-15T23:34:22Z</time>
      </trkpt>
      <trkpt lat="32.34813" lon="-5.72788">
        <ele>1612.083</ele>
        <time>2019-04-15T23:51:23Z</time>
      </trkpt>
      <trkpt lat="32.34099" lon="-5.7637">
        <ele>1516.58</ele>
        <time>2019-04-15T23:58:33Z</time>
      </trkpt>
      <trkpt lat="32.35541" lon="-5.77232">
        <ele>1454.867</ele>
        <time>2019-04-16T00:02:22Z</time>
      </trkpt>
      <trkpt lat="32.37808" lon="-5.74209">
        <ele>1462.236</ele>
        <time>2019-04-16T00:10:03Z</time>
      </trkpt>
      <trkpt lat="32.41917" lon="-5.74157">
        <ele>1404.884</ele>
        <time>2019-04-16T00:19:41Z</time>
      </trkpt>
      <trkpt lat="32.45142" lon="-5.76332">
        <ele>1396.51</ele>
        <time>2019-04-16T00:28:03Z</time>
      </trkpt>
      <trkpt lat="32.45722" lon="-5.78592">
        <ele>1419.237</ele>
        <time>2019-04-16T00:32:41Z</time>
      </trkpt>
      <trkpt lat="32.49915" lon="-5.80953">
        <ele>1703.649</ele>
        <time>2019-04-16T00:44:03Z</time>
      </trkpt>
      <trkpt lat="32.48551" lon="-5.83649">
        <ele>1568.313</ele>
        <time>2019-04-16T00:50:23Z</time>
      </trkpt>
      <trkpt lat="32.48647" lon="-5.86245">
        <ele>1381.908</ele>
        <time>2019-04-16T00:55:58Z</time>
      </trkpt>
      <trkpt lat="32.46069" lon="-5.90197">
        <ele>1307.978</ele>
        <time>2019-04-16T01:05:43Z</time>
      </trkpt>
      <trkpt lat="32.48346" lon="-5.9135">
        <ele>1367.398</ele>
        <time>2019-04-16T01:11:24Z</time>
      </trkpt>
      <trkpt lat="32.47585" lon="-5.98286">
        <ele>1077.839</ele>
        <time>2019-04-16T01:25:22Z</time>
      </trkpt>
      <trkpt lat="32.50021" lon="-6.03479">
        <ele>1445.536</ele>
        <time>2019-04-16T01:39:12Z</time>
      </trkpt>
      <trkpt lat="32.51615" lon="-6.01747">
        <ele>1456.293</ele>
        <time>2019-04-16T01:44:09Z</time>
      </trkpt>
      <trkpt lat="32.52219" lon="-6.02406">
        <ele>1395.062</ele>
        <time>2019-04-16T01:46:20Z</time>
      </trkpt>
      <trkpt lat="32.54418" lon="-6.01041">
        <ele>1176.99</ele>
        <time>2019-04-16T01:52:28Z</time>
      </trkpt>
      <trkpt lat="32.56625" lon="-6.01677">
        <ele>1072.666</ele>
        <time>2019-04-16T01:57:41Z</time>
      </trkpt>
      <trkpt lat="32.56584" lon="-6.03144">
        <ele>995.854</ele>
        <time>2019-04-16T02:00:30Z</time>
      </trkpt>
      <trkpt lat="32.57594" lon="-6.03538">
        <ele>976.556</ele>
        <time>2019-04-16T02:03:17Z</time>
      </trkpt>
      <trkpt lat="32.57509" lon="-6.04889">
        <ele>888.611</ele>
        <time>2019-04-16T02:05:58Z</time>
      </trkpt>
      <trkpt lat="32.59867" lon="-6.06444">
        <ele>734.108</ele>
        <time>2019-04-16T02:12:12Z</time>
      </trkpt>
      <trkpt lat="32.60138" lon="-6.00639">
        <ele>749.66</ele>
        <time>2019-04-16T02:23:22Z</time>
      </trkpt>
      <trkpt lat="32.62726" lon="-5.96655">
        <ele>719.89</ele>
        <time>2019-04-16T02:32:48Z</time>
      </trkpt>
      <trkpt lat="32.64316" lon="-5.91239">
        <ele>719.561</ele>
        <time>2019-04-16T02:44:26Z</time>
      </trkpt>
      <trkpt lat="32.6717" lon="-5.88636">
        <ele>733.488</ele>
        <time>2019-04-16T02:52:55Z</time>
      </trkpt>
      <trkpt lat="32.68337" lon="-5.85437">
        <ele>787.865</ele>
        <time>2019-04-16T03:00:02Z</time>
      </trkpt>
      <trkpt lat="32.70213" lon="-5.84356">
        <ele>732.724</ele>
        <time>2019-04-16T03:06:50Z</time>
      </trkpt>
      <trkpt lat="32.70067" lon="-5.81848">
        <ele>790.882</ele>
        <time>2019-04-16T03:11:52Z</time>
      </trkpt>
      <trkpt lat="32.72405" lon="-5.7964">
        <ele>784.358</ele>
        <time>2019-04-16T03:19:21Z</time>
      </trkpt>
      <trkpt lat="32.74952" lon="-5.74489">
        <ele>799.773</ele>
        <time>2019-04-16T03:30:44Z</time>
      </trkpt>
      <trkpt lat="32.74066" lon="-5.69362">
        <ele>873.385</ele>
        <time>2019-04-16T03:41:10Z</time>
      </trkpt>
      <trkpt lat="32.79112" lon="-5.64123">
        <ele>885.213</ele>
        <time>2019-04-16T03:57:17Z</time>
      </trkpt>
      <trkpt lat="32.8394" lon="-5.6138">
        <ele>839.408</ele>
        <time>2019-04-16T04:09:36Z</time>
      </trkpt>
      <trkpt lat="32.896" lon="-5.64032">
        <ele>947.762</ele>
        <time>2019-04-16T04:23:18Z</time>
      </trkpt>
      <trkpt lat="32.90391" lon="-5.67068">
        <ele>849.752</ele>
        <time>2019-04-16T04:29:50Z</time>
      </trkpt>
      <trkpt lat="32.99911" lon="-5.6512">
        <ele>884.513</ele>
        <time>2019-04-16T04:52:20Z</time>
      </trkpt>
      <trkpt lat="33.00612" lon="-5.63451">
        <ele>888.67</ele>
        <time>2019-04-16T04:55:51Z</time>
      </trkpt>
      <trkpt lat="33.04522" lon="-5.61233">
        <ele>927.027</ele>
        <time>2019-04-16T05:05:48Z</time>
      </trkpt>
      <trkpt lat="33.06397" lon="-5.61506">
        <ele>949.626</ele>
        <time>2019-04-16T05:10:10Z</time>
      </trkpt>
      <trkpt lat="33.08438" lon="-5.58713">
        <ele>1005.664</ele>
        <time>2019-04-16T05:17:12Z</time>
      </trkpt>
      <trkpt lat="33.18291" lon="-5.55916">
        <ele>1124.54</ele>
        <time>2019-04-16T05:40:32Z</time>
      </trkpt>
      <trkpt lat="33.19721" lon="-5.54316">
        <ele>1106.587</ele>
        <time>2019-04-16T05:45:02Z</time>
      </trkpt>
      <trkpt lat="33.24404" lon="-5.53083">
        <ele>1035.242</ele>
        <time>2019-04-16T05:56:27Z</time>
      </trkpt>
      <trkpt lat="33.26232" lon="-5.49869">
        <ele>1018.926</ele>
        <time>2019-04-16T06:04:01Z</time>
      </trkpt>
      <trkpt lat="33.29657" lon="-5.49111">
        <ele>905.608</ele>
        <time>2019-04-16T06:12:26Z</time>
      </trkpt>
      <trkpt lat="33.3536" lon="-5.42544">
        <ele>1011.653</ele>
        <time>2019-04-16T06:30:25Z</time>
      </trkpt>
      <trkpt lat="33.4258" lon="-5.27504">
        <ele>1145.993</ele>
        <time>2019-04-16T07:03:59Z</time>
      </trkpt>
      <trkpt lat="33.42522" lon="-5.24138">
        <ele>1204.544</ele>
        <time>2019-04-16T07:10:15Z</time>
      </trkpt>
      <trkpt lat="33.45062" lon="-5.16994">
        <ele>1503.691</ele>
        <time>2019-04-16T07:26:36Z</time>
      </trkpt>
      <trkpt lat="33.50433" lon="-5.1473">
        <ele>1651.648</ele>
        <time>2019-04-16T07:40:30Z</time>
      </trkpt>
      <trkpt lat="33.5021" lon="-5.13405">
        <ele>1654.577</ele>
        <time>2019-04-16T07:43:05Z</time>
      </trkpt>
      <trkpt lat="33.52758" lon="-5.10498">
        <ele>1637.575</ele>
        <time>2019-04-16T07:51:00Z</time>
      </trkpt>
      <trkpt lat="33.65387" lon="-5.06251">
        <ele>1486.351</ele>
        <time>2019-04-16T08:21:15Z</time>
      </trkpt>
      <trkpt lat="33.66043" lon="-5.04694">
        <ele>1509.092</ele>
        <time>2019-04-16T08:24:31Z</time>
      </trkpt>
      <trkpt lat="33.59396" lon="-5.06159">
        <ele>1681.773</ele>
        <time>2019-04-16T08:39:32Z</time>
      </trkpt>
      <trkpt lat="33.66054" lon="-5.04665">
        <ele>1509.92</ele>
        <time>2019-04-16T08:54:36Z</time>
      </trkpt>
      <trkpt lat="33.70224" lon="-5.0152">
        <ele>1411.108</ele>
        <time>2019-04-16T09:05:40Z</time>
      </trkpt>
      <trkpt lat="33.76772" lon="-5.00444">
        <ele>1100.174</ele>
        <time>2019-04-16T09:21:36Z</time>
      </trkpt>
      <trkpt lat="33.78983" lon="-4.98677">
        <ele>951.824</ele>
        <time>2019-04-16T09:28:34Z</time>
      </trkpt>
      <trkpt lat="33.89771" lon="-4.9911">
        <ele>626.635</ele>
        <time>2019-04-16T09:54:24Z</time>
      </trkpt>
      <trkpt lat="33.93618" lon="-4.91359">
        <ele>600.472</ele>
        <time>2019-04-16T10:11:55Z</time>
      </trkpt>
      <trkpt lat="34.01324" lon="-4.98189">
        <ele>432.079</ele>
        <time>2019-04-16T10:33:14Z</time>
      </trkpt>
      <trkpt lat="34.04451" lon="-4.96871">
        <ele>330.258</ele>
        <time>2019-04-16T10:40:55Z</time>
      </trkpt>
      <trkpt lat="34.05536" lon="-4.97721">
        <ele>302.326</ele>
        <time>2019-04-16T10:44:04Z</time>
      </trkpt>
      <trkpt lat="34.05095" lon="-4.99016">
        <ele>348.232</ele>
        <time>2019-04-16T10:46:41Z</time>
      </trkpt>
      <trkpt lat="34.05969" lon="-4.9815">
        <ele>364.777</ele>
        <time>2019-04-16T10:49:17Z</time>
      </trkpt>
      <trkpt lat="34.05336" lon="-4.97418">
        <ele>310.861</ele>
        <time>2019-04-16T10:52:41Z</time>
      </trkpt>
      <trkpt lat="34.06273" lon="-4.95812">
        <ele>301.527</ele>
        <time>2019-04-16T10:56:28Z</time>
      </trkpt>
      <trkpt lat="34.03758" lon="-4.87546">
        <ele>223.208</ele>
        <time>2019-04-16T11:13:25Z</time>
      </trkpt>
      <trkpt lat="34.04012" lon="-4.84604">
        <ele>219.772</ele>
        <time>2019-04-16T11:19:01Z</time>
      </trkpt>
      <trkpt lat="34.02447" lon="-4.80937">
        <ele>267.152</ele>
        <time>2019-04-16T11:26:54Z</time>
      </trkpt>
      <trkpt lat="34.03238" lon="-4.79518">
        <ele>405.493</ele>
        <time>2019-04-16T11:31:31Z</time>
      </trkpt>
      <trkpt lat="34.01323" lon="-4.72577">
        <ele>553.99</ele>
        <time>2019-04-16T11:45:44Z</time>
      </trkpt>
      <trkpt lat="33.99607" lon="-4.70396">
        <ele>544.927</ele>
        <time>2019-04-16T11:51:17Z</time>
      </trkpt>
      <trkpt lat="34.00278" lon="-4.69806">
        <ele>581.066</ele>
        <time>2019-04-16T11:53:08Z</time>
      </trkpt>
      <trkpt lat="33.99661" lon="-4.6786">
        <ele>553.974</ele>
        <time>2019-04-16T11:57:05Z</time>
      </trkpt>
      <trkpt lat="34.0476" lon="-4.52992">
        <ele>344.29</ele>
        <time>2019-04-16T12:27:48Z</time>
      </trkpt>
      <trkpt lat="34.06803" lon="-4.51835">
        <ele>305.456</ele>
        <time>2019-04-16T12:32:51Z</time>
      </trkpt>
      <trkpt lat="34.13756" lon="-4.39493">
        <ele>298.559</ele>
        <time>2019-04-16T13:00:54Z</time>
      </trkpt>
      <trkpt lat="34.15823" lon="-4.32288">
        <ele>306.214</ele>
        <time>2019-04-16T13:15:03Z</time>
      </trkpt>
      <trkpt lat="34.18301" lon="-4.30724">
        <ele>286.808</ele>
        <time>2019-04-16T13:21:30Z</time>
      </trkpt>
      <trkpt lat="34.21624" lon="-4.24222">
        <ele>387.02</ele>
        <time>2019-04-16T13:35:45Z</time>
      </trkpt>
      <trkpt lat="34.23112" lon="-4.18503">
        <ele>432.84</ele>
        <time>2019-04-16T13:46:53Z</time>
      </trkpt>
      <trkpt lat="34.22012" lon="-4.10549">
        <ele>384.471</ele>
        <time>2019-04-16T14:01:58Z</time>
      </trkpt>
      <trkpt lat="34.23208" lon="-4.07109">
        <ele>404.458</ele>
        <time>2019-04-16T14:10:44Z</time>
      </trkpt>
      <trkpt lat="34.23201" lon="-4.00082">
        <ele>456.695</ele>
        <time>2019-04-16T14:24:01Z</time>
      </trkpt>
      <trkpt lat="34.223" lon="-3.97465">
        <ele>479.434</ele>
        <time>2019-04-16T14:29:24Z</time>
      </trkpt>
      <trkpt lat="34.2374" lon="-3.88277">
        <ele>513.382</ele>
        <time>2019-04-16T14:47:05Z</time>
      </trkpt>
      <trkpt lat="34.24832" lon="-3.86665">
        <ele>525.288</ele>
        <time>2019-04-16T14:51:00Z</time>
      </trkpt>
      <trkpt lat="34.26124" lon="-3.73676">
        <ele>514.321</ele>
        <time>2019-04-16T15:15:19Z</time>
      </trkpt>
      <trkpt lat="34.23059" lon="-3.67073">
        <ele>503.141</ele>
        <time>2019-04-16T15:29:41Z</time>
      </trkpt>
      <trkpt lat="34.20413" lon="-3.50635">
        <ele>439.905</ele>
        <time>2019-04-16T16:00:53Z</time>
      </trkpt>
      <trkpt lat="34.22381" lon="-3.3578">
        <ele>370.108</ele>
        <time>2019-04-16T16:28:53Z</time>
      </trkpt>
      <trkpt lat="34.24179" lon="-3.32282">
        <ele>355.957</ele>
        <time>2019-04-16T16:36:34Z</time>
      </trkpt>
      <trkpt lat="34.24486" lon="-3.26908">
        <ele>386.797</ele>
        <time>2019-04-16T16:46:48Z</time>
      </trkpt>
      <trkpt lat="34.29911" lon="-3.14344">
        <ele>412.338</ele>
        <time>2019-04-16T17:13:44Z</time>
      </trkpt>
      <trkpt lat="34.30163" lon="-3.11184">
        <ele>461.095</ele>
        <time>2019-04-16T17:19:35Z</time>
      </trkpt>
      <trkpt lat="34.33671" lon="-3.05646">
        <ele>425.232</ele>
        <time>2019-04-16T17:32:36Z</time>
      </trkpt>
      <trkpt lat="34.38352" lon="-3.01707">
        <ele>404.561</ele>
        <time>2019-04-16T17:45:41Z</time>
      </trkpt>
      <trkpt lat="34.40549" lon="-2.98269">
        <ele>380.539</ele>
        <time>2019-04-16T17:53:39Z</time>
      </trkpt>
      <trkpt lat="34.40834" lon="-2.95296">
        <ele>360.315</ele>
        <time>2019-04-16T17:59:16Z</time>
      </trkpt>
      <trkpt lat="34.44018" lon="-2.97892">
        <ele>329.821</ele>
        <time>2019-04-16T18:08:39Z</time>
      </trkpt>
      <trkpt lat="34.49804" lon="-2.99638">
        <ele>291.041</ele>
        <time>2019-04-16T18:22:03Z</time>
      </trkpt>
      <trkpt lat="34.5124" lon="-3.01789">
        <ele>268.305</ele>
        <time>2019-04-16T18:27:11Z</time>
      </trkpt>
      <trkpt lat="34.53983" lon="-3.03083">
        <ele>253.408</ele>
        <time>2019-04-16T18:33:47Z</time>
      </trkpt>
      <trkpt lat="34.54855" lon="-3.01859">
        <ele>251.547</ele>
        <time>2019-04-16T18:36:59Z</time>
      </trkpt>
      <trkpt lat="34.57094" lon="-3.03422">
        <ele>255.737</ele>
        <time>2019-04-16T18:42:58Z</time>
      </trkpt>
      <trkpt lat="34.64033" lon="-3.02297">
        <ele>291.058</ele>
        <time>2019-04-16T18:58:39Z</time>
      </trkpt>
      <trkpt lat="34.66959" lon="-2.98972">
        <ele>247.915</ele>
        <time>2019-04-16T19:07:43Z</time>
      </trkpt>
      <trkpt lat="34.69809" lon="-2.97837">
        <ele>262.142</ele>
        <time>2019-04-16T19:14:26Z</time>
      </trkpt>
      <trkpt lat="34.74151" lon="-2.99857">
        <ele>373.491</ele>
        <time>2019-04-16T19:25:05Z</time>
      </trkpt>
      <trkpt lat="34.79711" lon="-2.98117">
        <ele>356.249</ele>
        <time>2019-04-16T19:38:20Z</time>
      </trkpt>
      <trkpt lat="34.83728" lon="-2.87739">
        <ele>351.965</ele>
        <time>2019-04-16T19:59:42Z</time>
      </trkpt>
      <trkpt lat="34.89304" lon="-2.86639">
        <ele>207.194</ele>
        <time>2019-04-16T20:13:08Z</time>
      </trkpt>
      <trkpt lat="34.95338" lon="-2.89089">
        <ele>222.057</ele>
        <time>2019-04-16T20:27:29Z</time>
      </trkpt>
      <trkpt lat="35.04558" lon="-2.96049">
        <ele>113.922</ele>
        <time>2019-04-16T20:52:06Z</time>
      </trkpt>
      <trkpt lat="35.06236" lon="-2.93259">
        <ele>88.208</ele>
        <time>2019-04-16T20:58:30Z</time>
      </trkpt>
      <trkpt lat="35.13125" lon="-2.92204">
        <ele>13.334</ele>
        <time>2019-04-16T21:14:28Z</time>
      </trkpt>
      <trkpt lat="35.19632" lon="-2.9304">
        <ele>8.394</ele>
        <time>2019-04-16T21:29:51Z</time>
      </trkpt>
      <trkpt lat="35.20763" lon="-2.91562">
        <ele>20.295</ele>
        <time>2019-04-16T21:33:33Z</time>
      </trkpt>
      <trkpt lat="35.24754" lon="-2.93808">
        <ele>17.122</ele>
        <time>2019-04-16T21:43:47Z</time>
      </trkpt>
    </trkseg>
  </trk>
</gpx>